Time;durP1;ratioP1;P1;durP2;ratioP2;P2;SDS_P1;SDS_P2;PMS_P1;PMS_P2;Temp;Humidity;BMP_temperature;BMP_pressure;BME280_temperature;BME280_humidity;BME280_pressure;Samples;Min_cycle;Max_cycle;Signal;HPM_P1;HPM_P2
2022/11/08 00:03:42;;;;;;;6.65;2.50;;;;;;;;;;5280933;28;20397;-79
2022/11/08 00:14:45;;;;;;;10.02;2.53;;;;;;;;;;5289426;28;20040;-79
2022/11/08 00:17:17;;;;;;;8.43;2.53;;;;;;;;;;5284684;28;20108;-80
2022/11/08 00:19:49;;;;;;;9.43;2.38;;;;;;;;;;5285432;28;20045;-80
2022/11/08 00:22:20;;;;;;;12.18;2.72;;;;;;;;;;5288118;28;20469;-80
2022/11/08 00:24:51;;;;;;;10.05;3.15;;;;;;;;;;5292767;28;20452;-80
2022/11/08 00:27:23;;;;;;;7.65;2.60;;;;;;;;;;5281967;28;20040;-79
2022/11/08 00:29:54;;;;;;;10.43;2.63;;;;;;;;;;5277550;28;20457;-79
2022/11/08 00:32:26;;;;;;;13.27;2.70;;;;;;;;;;5275203;28;20139;-79
2022/11/08 00:34:57;;;;;;;12.30;2.60;;;;;;;;;;5282790;28;20039;-80
2022/11/08 00:37:28;;;;;;;11.93;3.35;;;;;;;;;;5265027;28;20025;-80
2022/11/08 00:40:00;;;;;;;11.48;2.80;;;;;;;;;;5282549;28;20138;-80
2022/11/08 00:42:31;;;;;;;10.23;2.43;;;;;;;;;;5262092;28;20103;-80
2022/11/08 00:45:02;;;;;;;10.55;3.15;;;;;;;;;;5275226;28;20767;-79
2022/11/08 00:47:33;;;;;;;10.60;2.95;;;;;;;;;;5277468;28;20049;-80
2022/11/08 00:50:05;;;;;;;10.75;2.67;;;;;;;;;;5281272;28;20040;-80
2022/11/08 00:52:36;;;;;;;11.02;2.97;;;;;;;;;;5281400;28;20036;-80
2022/11/08 00:55:07;;;;;;;5.73;2.20;;;;;;;;;;5283444;28;20028;-80
2022/11/08 00:57:38;;;;;;;14.32;3.65;;;;;;;;;;5282315;28;20267;-80
2022/11/08 01:00:11;;;;;;;8.53;2.90;;;;;;;;;;5257229;28;20523;-80
2022/11/08 01:02:42;;;;;;;11.43;2.40;;;;;;;;;;5276295;28;20276;-79
2022/11/08 01:05:13;;;;;;;7.70;2.67;;;;;;;;;;5259407;28;20082;-80
2022/11/08 01:07:44;;;;;;;7.80;2.40;;;;;;;;;;5285062;28;20024;-80
2022/11/08 01:10:16;;;;;;;10.38;3.08;;;;;;;;;;5279677;28;20047;-80
2022/11/08 01:12:47;;;;;;;8.70;2.93;;;;;;;;;;5282046;28;20064;-80
2022/11/08 01:15:18;;;;;;;13.80;2.83;;;;;;;;;;5278845;28;20284;-80
2022/11/08 01:17:49;;;;;;;8.40;2.38;;;;;;;;;;5278917;28;20275;-80
2022/11/08 01:20:20;;;;;;;11.63;2.53;;;;;;;;;;5280229;28;20154;-79
2022/11/08 01:22:51;;;;;;;9.23;3.13;;;;;;;;;;5282475;28;20651;-80
2022/11/08 01:25:23;;;;;;;7.83;3.30;;;;;;;;;;5261275;28;20164;-80
2022/11/08 01:27:54;;;;;;;8.30;3.03;;;;;;;;;;5279608;28;20333;-80
2022/11/08 01:30:25;;;;;;;9.83;2.40;;;;;;;;;;5278425;28;20267;-80
2022/11/08 01:32:56;;;;;;;7.50;2.70;;;;;;;;;;5281544;28;20524;-80
2022/11/08 01:35:29;;;;;;;7.70;2.90;;;;;;;;;;5285243;28;20271;-80
2022/11/08 01:38:00;;;;;;;13.07;3.17;;;;;;;;;;5263328;28;20065;-79
2022/11/08 01:40:32;;;;;;;13.75;3.22;;;;;;;;;;5275600;28;20124;-80
2022/11/08 01:43:26;;;;;;;10.30;3.40;;;;;;;;;;5283557;28;20029;-80
2022/11/08 01:46:00;;;;;;;10.50;3.70;;;;;;;;;;5266343;28;20248;-79
2022/11/08 01:48:31;;;;;;;10.65;3.25;;;;;;;;;;5278370;28;20136;-80
2022/11/08 01:51:03;;;;;;;10.00;3.42;;;;;;;;;;5278922;28;20070;-79
2022/11/08 01:53:34;;;;;;;11.95;4.05;;;;;;;;;;5275381;28;20108;-80
2022/11/08 01:56:06;;;;;;;9.98;3.25;;;;;;;;;;5278197;28;20028;-80
2022/11/08 01:58:38;;;;;;;9.02;3.70;;;;;;;;;;5279149;28;20388;-80
2022/11/08 02:01:10;;;;;;;9.07;3.00;;;;;;;;;;5277982;28;20032;-80
2022/11/08 02:03:42;;;;;;;10.27;3.78;;;;;;;;;;5277255;28;20478;-79
2022/11/08 02:06:13;;;;;;;10.32;3.53;;;;;;;;;;5279652;28;20381;-79
2022/11/08 02:08:45;;;;;;;7.80;2.85;;;;;;;;;;5273799;28;20104;-79
2022/11/08 02:11:16;;;;;;;9.00;2.83;;;;;;;;;;5281739;28;20035;-79
2022/11/08 02:13:47;;;;;;;8.88;3.60;;;;;;;;;;5276089;28;20057;-79
2022/11/08 02:16:19;;;;;;;11.60;3.50;;;;;;;;;;5276390;28;20116;-79
2022/11/08 02:18:50;;;;;;;10.90;3.03;;;;;;;;;;5274030;28;20536;-79
2022/11/08 02:21:25;;;;;;;7.68;2.80;;;;;;;;;;5277219;28;20455;-80
2022/11/08 02:23:58;;;;;;;9.82;2.83;;;;;;;;;;5280349;28;20083;-79
2022/11/08 02:26:32;;;;;;;8.43;2.35;;;;;;;;;;5278750;28;20143;-79
2022/11/08 02:29:22;;;;;;;13.73;2.83;;;;;;;;;;5281503;28;20021;-79
2022/11/08 02:31:53;;;;;;;7.57;2.55;;;;;;;;;;5275828;28;20044;-79
2022/11/08 02:34:27;;;;;;;8.63;2.85;;;;;;;;;;5278949;28;20029;-79
2022/11/08 02:36:58;;;;;;;8.75;2.88;;;;;;;;;;5278771;28;20070;-79
2022/11/08 02:39:31;;;;;;;7.57;2.97;;;;;;;;;;5274384;28;20033;-79
2022/11/08 02:42:03;;;;;;;8.32;2.63;;;;;;;;;;5280377;28;20033;-79
2022/11/08 02:44:34;;;;;;;6.93;2.60;;;;;;;;;;5281238;28;20032;-79
2022/11/08 02:47:05;;;;;;;6.00;2.37;;;;;;;;;;5276735;28;20037;-79
2022/11/08 02:49:36;;;;;;;8.83;2.60;;;;;;;;;;5281577;28;20267;-79
2022/11/08 02:52:07;;;;;;;9.10;2.70;;;;;;;;;;5276444;28;20248;-79
2022/11/08 02:54:38;;;;;;;9.40;2.60;;;;;;;;;;5283023;28;20359;-79
2022/11/08 02:57:10;;;;;;;8.48;2.40;;;;;;;;;;5279429;28;20274;-79
2022/11/08 02:59:41;;;;;;;9.07;2.45;;;;;;;;;;5282261;28;20040;-79
2022/11/08 03:02:12;;;;;;;6.90;2.50;;;;;;;;;;5275298;28;20315;-79
2022/11/08 03:04:43;;;;;;;12.50;2.40;;;;;;;;;;5276077;28;20044;-79
2022/11/08 03:07:15;;;;;;;6.97;2.50;;;;;;;;;;5280963;28;20286;-79
2022/11/08 03:09:46;;;;;;;6.30;2.33;;;;;;;;;;5278743;28;20299;-79
2022/11/08 03:12:19;;;;;;;12.30;2.73;;;;;;;;;;5261546;28;20148;-79
2022/11/08 03:14:50;;;;;;;5.68;2.40;;;;;;;;;;5283786;28;20284;-79
2022/11/08 03:17:21;;;;;;;5.83;2.10;;;;;;;;;;5276137;28;20417;-79
2022/11/08 03:19:52;;;;;;;6.97;2.43;;;;;;;;;;5278848;28;20331;-79
2022/11/08 03:22:24;;;;;;;10.18;2.75;;;;;;;;;;5280223;28;20024;-79
2022/11/08 03:24:55;;;;;;;5.90;2.20;;;;;;;;;;5275317;28;21513;-79
2022/11/08 03:27:26;;;;;;;10.07;2.50;;;;;;;;;;5280125;28;20058;-79
2022/11/08 03:29:57;;;;;;;7.30;2.33;;;;;;;;;;5284043;28;20433;-79
2022/11/08 03:32:28;;;;;;;5.53;2.17;;;;;;;;;;5277162;28;20284;-79
2022/11/08 03:35:00;;;;;;;6.90;2.17;;;;;;;;;;5268807;28;20275;-79
2022/11/08 03:37:31;;;;;;;10.23;2.60;;;;;;;;;;5280764;28;20485;-79
2022/11/08 03:40:02;;;;;;;8.50;2.73;;;;;;;;;;5285818;28;20295;-79
2022/11/08 03:42:34;;;;;;;11.52;2.88;;;;;;;;;;5281307;28;20219;-79
2022/11/08 03:45:05;;;;;;;8.53;2.67;;;;;;;;;;5283233;28;20037;-79
2022/11/08 03:47:37;;;;;;;8.30;2.42;;;;;;;;;;5278439;28;20045;-79
2022/11/08 03:50:09;;;;;;;15.30;3.53;;;;;;;;;;5284319;28;20024;-79
2022/11/08 03:52:45;;;;;;;7.30;2.25;;;;;;;;;;5280720;28;20032;-79
2022/11/08 03:55:17;;;;;;;7.32;2.35;;;;;;;;;;5281618;28;20104;-79
2022/11/08 03:57:49;;;;;;;11.30;2.60;;;;;;;;;;5270854;28;20032;-79
2022/11/08 04:00:21;;;;;;;9.52;2.35;;;;;;;;;;5278467;28;20516;-79
2022/11/08 04:02:54;;;;;;;8.18;2.40;;;;;;;;;;5282394;28;20485;-79
2022/11/08 04:05:25;;;;;;;8.57;3.20;;;;;;;;;;5281989;28;20626;-79
2022/11/08 04:07:57;;;;;;;9.30;2.70;;;;;;;;;;5281143;28;20032;-79
2022/11/08 04:10:28;;;;;;;9.15;2.50;;;;;;;;;;5282418;28;21278;-79
2022/11/08 04:15:52;;;;;;;12.55;3.33;;;;;;;;;;5278632;28;20045;-79
2022/11/08 04:21:20;;;;;;;8.85;3.25;;;;;;;;;;5280863;28;20041;-79
2022/11/08 04:23:51;;;;;;;11.05;4.05;;;;;;;;;;5281913;28;20476;-79
2022/11/08 04:26:22;;;;;;;11.10;4.30;;;;;;;;;;5281018;28;20033;-79
2022/11/08 04:28:54;;;;;;;9.87;3.53;;;;;;;;;;5282741;28;20036;-79
2022/11/08 04:31:25;;;;;;;11.27;3.90;;;;;;;;;;5278803;28;20079;-79
2022/11/08 04:33:56;;;;;;;13.23;3.70;;;;;;;;;;5281360;28;20218;-79
2022/11/08 04:36:27;;;;;;;10.73;3.30;;;;;;;;;;5279756;28;20033;-79
2022/11/08 04:38:58;;;;;;;9.57;3.40;;;;;;;;;;5280812;28;20036;-79
2022/11/08 04:41:30;;;;;;;8.23;3.25;;;;;;;;;;5282209;28;20208;-79
2022/11/08 04:44:01;;;;;;;9.90;3.28;;;;;;;;;;5279599;28;20064;-79
2022/11/08 04:46:32;;;;;;;7.10;2.80;;;;;;;;;;5279811;28;20417;-79
2022/11/08 04:49:03;;;;;;;7.83;2.70;;;;;;;;;;5280251;28;20415;-79
2022/11/08 04:51:34;;;;;;;8.15;3.00;;;;;;;;;;5262066;28;20036;-80
2022/11/08 04:54:06;;;;;;;7.80;3.30;;;;;;;;;;5280856;28;20073;-79
2022/11/08 04:56:37;;;;;;;9.77;2.85;;;;;;;;;;5279478;28;20035;-79
2022/11/08 04:59:09;;;;;;;8.07;2.77;;;;;;;;;;5278460;28;20064;-79
2022/11/08 05:01:40;;;;;;;8.68;3.00;;;;;;;;;;5282586;28;20024;-79
2022/11/08 05:04:11;;;;;;;7.03;2.53;;;;;;;;;;5280538;28;20037;-79
2022/11/08 05:06:43;;;;;;;8.17;2.40;;;;;;;;;;5282040;28;20118;-79
2022/11/08 05:09:14;;;;;;;7.82;2.80;;;;;;;;;;5281621;28;20299;-79
2022/11/08 05:11:45;;;;;;;5.63;2.60;;;;;;;;;;5285092;28;20028;-79
2022/11/08 05:14:17;;;;;;;10.13;2.90;;;;;;;;;;5261060;28;20367;-79
2022/11/08 05:16:48;;;;;;;10.30;3.25;;;;;;;;;;5280501;28;20677;-79
2022/11/08 05:23:22;;;;;;;9.10;2.55;;;;;;;;;;5282226;28;20627;-80
2022/11/08 05:25:00;;;;;;;8.40;2.58;;;;;;;;;;5280905;28;20028;-80
2022/11/08 05:27:32;;;;;;;8.07;2.77;;;;;;;;;;5259774;28;20044;-80
2022/11/08 05:30:04;;;;;;;7.60;2.65;;;;;;;;;;5284919;28;20279;-80
2022/11/08 05:32:35;;;;;;;7.10;2.97;;;;;;;;;;5282229;28;20063;-79
2022/11/08 05:35:06;;;;;;;9.88;3.13;;;;;;;;;;5278681;28;20017;-79
2022/11/08 05:37:39;;;;;;;8.07;2.78;;;;;;;;;;5276498;28;20061;-79
2022/11/08 05:40:10;;;;;;;6.47;2.72;;;;;;;;;;5277894;28;20037;-79
2022/11/08 05:42:42;;;;;;;4.60;2.30;;;;;;;;;;5275143;28;20039;-79
2022/11/08 05:45:13;;;;;;;7.65;3.08;;;;;;;;;;5280464;28;20021;-79
2022/11/08 05:47:45;;;;;;;8.10;2.60;;;;;;;;;;5276575;28;20045;-79
2022/11/08 05:50:16;;;;;;;5.85;2.20;;;;;;;;;;5263796;28;20057;-78
2022/11/08 05:52:47;;;;;;;5.00;2.20;;;;;;;;;;5278791;28;20151;-78
2022/11/08 05:55:18;;;;;;;7.63;2.70;;;;;;;;;;5279300;28;20366;-78
2022/11/08 05:57:49;;;;;;;8.17;2.47;;;;;;;;;;5276289;28;20446;-78
2022/11/08 06:00:21;;;;;;;7.30;2.65;;;;;;;;;;5256049;28;20041;-79
2022/11/08 06:02:52;;;;;;;8.63;3.60;;;;;;;;;;5277263;28;20036;-79
2022/11/08 06:05:23;;;;;;;9.27;2.70;;;;;;;;;;5279434;28;20028;-79
2022/11/08 06:07:54;;;;;;;7.43;3.10;;;;;;;;;;5284827;28;20342;-79
2022/11/08 06:10:26;;;;;;;7.60;2.90;;;;;;;;;;5274865;28;20751;-79
2022/11/08 06:12:58;;;;;;;8.30;3.00;;;;;;;;;;5279537;28;20275;-79
2022/11/08 06:15:29;;;;;;;8.23;2.50;;;;;;;;;;5276152;28;20306;-79
2022/11/08 06:18:01;;;;;;;7.77;2.67;;;;;;;;;;5277114;28;20124;-79
2022/11/08 06:20:33;;;;;;;9.15;3.30;;;;;;;;;;5274703;28;20489;-79
2022/11/08 06:23:04;;;;;;;9.10;3.00;;;;;;;;;;5277551;28;20047;-79
2022/11/08 06:25:35;;;;;;;7.97;2.50;;;;;;;;;;5277312;28;20280;-79
2022/11/08 06:28:07;;;;;;;12.90;3.60;;;;;;;;;;5272977;28;20033;-79
2022/11/08 06:30:38;;;;;;;6.18;2.60;;;;;;;;;;5254778;28;20186;-79
2022/11/08 06:33:09;;;;;;;9.77;2.80;;;;;;;;;;5273458;28;20067;-79
2022/11/08 06:35:41;;;;;;;8.40;2.80;;;;;;;;;;5281336;28;20056;-79
2022/11/08 06:38:12;;;;;;;7.68;3.10;;;;;;;;;;5280689;28;20020;-79
2022/11/08 06:40:43;;;;;;;4.53;2.40;;;;;;;;;;5277335;28;20060;-79
2022/11/08 06:43:15;;;;;;;8.35;2.85;;;;;;;;;;5278309;28;20029;-79
2022/11/08 06:45:46;;;;;;;8.13;2.63;;;;;;;;;;5281422;28;20037;-80
2022/11/08 06:48:17;;;;;;;5.05;2.47;;;;;;;;;;5249488;28;20291;-79
2022/11/08 06:50:48;;;;;;;6.60;2.53;;;;;;;;;;5263410;28;20192;-79
2022/11/08 06:53:20;;;;;;;8.90;3.27;;;;;;;;;;5281642;28;20117;-79
2022/11/08 06:55:51;;;;;;;7.25;2.55;;;;;;;;;;5281884;28;20282;-79
2022/11/08 06:58:22;;;;;;;5.63;2.53;;;;;;;;;;5281873;28;20156;-79
2022/11/08 07:00:53;;;;;;;7.77;2.47;;;;;;;;;;5281380;28;20108;-79
2022/11/08 07:03:24;;;;;;;8.57;2.53;;;;;;;;;;5284724;28;20016;-79
2022/11/08 07:05:56;;;;;;;4.80;2.17;;;;;;;;;;5283927;28;20084;-79
2022/11/08 07:08:27;;;;;;;5.67;2.10;;;;;;;;;;5284528;28;20256;-79
2022/11/08 07:10:58;;;;;;;7.95;2.50;;;;;;;;;;5285400;28;20284;-79
2022/11/08 07:13:29;;;;;;;7.45;2.47;;;;;;;;;;5285099;28;20036;-79
2022/11/08 07:16:01;;;;;;;6.05;2.20;;;;;;;;;;5285908;28;20055;-79
2022/11/08 07:18:32;;;;;;;5.65;2.45;;;;;;;;;;5285351;28;20036;-79
2022/11/08 07:21:03;;;;;;;6.50;1.87;;;;;;;;;;5278589;28;20488;-79
2022/11/08 07:23:35;;;;;;;6.63;2.88;;;;;;;;;;5282272;28;20457;-79
2022/11/08 07:26:07;;;;;;;5.68;2.25;;;;;;;;;;5267242;28;20033;-79
2022/11/08 07:28:39;;;;;;;6.25;2.05;;;;;;;;;;5285570;28;20024;-79
2022/11/08 07:31:10;;;;;;;5.80;2.10;;;;;;;;;;5285565;28;20029;-79
2022/11/08 07:33:41;;;;;;;6.25;2.40;;;;;;;;;;5285540;28;20381;-79
2022/11/08 07:36:12;;;;;;;6.00;2.47;;;;;;;;;;5284473;28;20032;-79
2022/11/08 07:38:43;;;;;;;6.30;2.80;;;;;;;;;;5285294;28;20017;-79
2022/11/08 07:41:15;;;;;;;6.63;2.13;;;;;;;;;;5285336;28;20036;-80
2022/11/08 07:43:47;;;;;;;5.73;2.57;;;;;;;;;;5285597;28;20160;-80
2022/11/08 07:46:18;;;;;;;5.18;2.60;;;;;;;;;;5285674;28;20267;-79
2022/11/08 07:48:49;;;;;;;5.70;1.93;;;;;;;;;;5285721;28;20425;-79
2022/11/08 07:51:21;;;;;;;5.75;1.92;;;;;;;;;;5285260;28;20286;-79
2022/11/08 07:53:52;;;;;;;5.63;1.93;;;;;;;;;;5285452;28;20017;-79
2022/11/08 07:56:23;;;;;;;4.53;1.60;;;;;;;;;;5285622;28;20100;-79
2022/11/08 07:58:54;;;;;;;5.37;1.90;;;;;;;;;;5285974;28;20035;-79
2022/11/08 08:01:25;;;;;;;5.07;2.27;;;;;;;;;;5284976;28;20044;-79
2022/11/08 08:03:56;;;;;;;5.30;1.73;;;;;;;;;;5285300;28;20055;-79
2022/11/08 08:06:28;;;;;;;2.77;1.70;;;;;;;;;;5284479;28;20759;-79
2022/11/08 08:08:59;;;;;;;2.73;1.73;;;;;;;;;;5285202;28;20029;-80
2022/11/08 08:11:30;;;;;;;3.43;1.47;;;;;;;;;;5267540;28;20047;-79
2022/11/08 08:14:01;;;;;;;3.90;1.60;;;;;;;;;;5263166;28;20785;-79
2022/11/08 08:16:35;;;;;;;2.35;1.50;;;;;;;;;;5264116;28;20056;-79
2022/11/08 08:19:06;;;;;;;3.10;1.73;;;;;;;;;;5263654;28;20024;-79
2022/11/08 08:21:38;;;;;;;2.90;1.17;;;;;;;;;;5267506;28;20029;-79
2022/11/08 08:24:09;;;;;;;4.03;1.45;;;;;;;;;;5284826;28;20359;-79
2022/11/08 08:26:40;;;;;;;1.77;1.20;;;;;;;;;;5284472;28;20025;-79
2022/11/08 08:29:11;;;;;;;2.93;1.50;;;;;;;;;;5284731;28;20311;-80
2022/11/08 08:31:42;;;;;;;2.77;1.63;;;;;;;;;;5284265;28;20017;-79
2022/11/08 08:34:14;;;;;;;2.43;1.33;;;;;;;;;;5284846;28;20021;-79
2022/11/08 08:36:45;;;;;;;4.60;1.45;;;;;;;;;;5264828;28;20268;-79
2022/11/08 08:39:17;;;;;;;4.73;1.40;;;;;;;;;;5284287;28;20033;-79
2022/11/08 08:41:48;;;;;;;3.30;1.27;;;;;;;;;;5284415;28;20075;-79
2022/11/08 08:44:19;;;;;;;1.77;1.30;;;;;;;;;;5284681;28;20059;-79
2022/11/08 08:46:50;;;;;;;2.92;1.23;;;;;;;;;;5281645;28;20258;-79
2022/11/08 08:49:21;;;;;;;3.93;1.43;;;;;;;;;;5263020;28;20496;-79
2022/11/08 08:51:53;;;;;;;2.63;1.30;;;;;;;;;;5263180;28;20270;-79
2022/11/08 08:54:24;;;;;;;3.13;1.40;;;;;;;;;;5263247;28;20030;-79
2022/11/08 08:56:55;;;;;;;2.78;1.33;;;;;;;;;;5261724;28;21079;-79
2022/11/08 08:59:27;;;;;;;2.30;1.47;;;;;;;;;;5262740;28;20029;-80
2022/11/08 09:01:59;;;;;;;4.70;1.85;;;;;;;;;;5265115;28;20272;-79
2022/11/08 09:04:31;;;;;;;2.88;1.45;;;;;;;;;;5265434;28;20032;-79
2022/11/08 09:07:02;;;;;;;4.03;1.40;;;;;;;;;;5283634;28;20031;-79
2022/11/08 09:09:33;;;;;;;2.97;1.23;;;;;;;;;;5265595;28;20272;-79
2022/11/08 09:12:04;;;;;;;3.20;1.30;;;;;;;;;;5283701;28;20290;-79
2022/11/08 09:14:35;;;;;;;3.33;1.25;;;;;;;;;;5265724;28;20638;-79
2022/11/08 09:17:07;;;;;;;8.10;2.08;;;;;;;;;;5264780;28;20497;-79
2022/11/08 09:19:38;;;;;;;4.27;1.60;;;;;;;;;;5283894;28;20469;-79
2022/11/08 09:22:09;;;;;;;4.33;1.40;;;;;;;;;;5267821;28;20429;-79
2022/11/08 09:24:40;;;;;;;5.77;3.07;;;;;;;;;;5262427;28;20096;-79
2022/11/08 09:27:11;;;;;;;5.87;2.40;;;;;;;;;;5261518;28;20029;-79
2022/11/08 09:29:42;;;;;;;5.20;1.70;;;;;;;;;;5261265;28;20284;-79
2022/11/08 09:32:14;;;;;;;4.28;1.50;;;;;;;;;;5272853;28;20561;-79
2022/11/08 09:34:45;;;;;;;2.37;1.33;;;;;;;;;;5265378;28;20028;-79
2022/11/08 09:37:16;;;;;;;8.27;1.40;;;;;;;;;;5283513;28;20244;-79
2022/11/08 09:39:47;;;;;;;2.60;1.25;;;;;;;;;;5282788;28;20100;-79
2022/11/08 09:42:27;;;;;;;3.75;1.35;;;;;;;;;;5283615;28;20032;-79
2022/11/08 09:45:01;;;;;;;4.65;1.50;;;;;;;;;;5283391;28;20036;-79
2022/11/08 09:47:34;;;;;;;4.03;1.30;;;;;;;;;;5282610;28;20501;-79
2022/11/08 09:50:13;;;;;;;4.88;1.45;;;;;;;;;;5282962;28;20033;-79
2022/11/08 09:52:48;;;;;;;2.28;1.48;;;;;;;;;;5283434;28;20025;-79
2022/11/08 09:55:27;;;;;;;2.83;1.50;;;;;;;;;;5283488;28;20029;-79
2022/11/08 09:58:18;;;;;;;2.80;1.38;;;;;;;;;;5282205;28;20361;-79
2022/11/08 10:00:50;;;;;;;2.30;1.25;;;;;;;;;;5282948;28;20436;-79
2022/11/08 10:03:23;;;;;;;3.83;1.70;;;;;;;;;;5282586;28;20036;-80
2022/11/08 10:05:57;;;;;;;4.45;1.45;;;;;;;;;;5283056;28;20040;-80
2022/11/08 10:08:28;;;;;;;2.67;1.10;;;;;;;;;;5283053;28;20502;-80
2022/11/08 10:10:59;;;;;;;4.20;1.50;;;;;;;;;;5276667;28;20160;-80
2022/11/08 10:13:33;;;;;;;2.88;1.35;;;;;;;;;;5283356;28;20025;-80
2022/11/08 10:16:23;;;;;;;2.75;1.30;;;;;;;;;;5282399;28;20033;-79
2022/11/08 10:19:14;;;;;;;3.15;1.40;;;;;;;;;;5283055;28;20096;-79
2022/11/08 10:21:48;;;;;;;4.18;1.20;;;;;;;;;;5282350;28;20056;-79
2022/11/08 10:24:19;;;;;;;2.60;1.20;;;;;;;;;;5283364;28;20036;-80
2022/11/08 10:26:52;;;;;;;9.83;1.80;;;;;;;;;;5264438;28;20366;-80
2022/11/08 10:29:31;;;;;;;6.03;2.00;;;;;;;;;;5282884;28;20017;-80
2022/11/08 10:32:13;;;;;;;2.63;1.38;;;;;;;;;;5282497;28;20029;-79
2022/11/08 10:34:47;;;;;;;5.30;1.30;;;;;;;;;;5282732;28;20553;-79
2022/11/08 10:37:19;;;;;;;2.90;1.33;;;;;;;;;;5283729;28;20080;-79
2022/11/08 10:39:55;;;;;;;2.47;1.40;;;;;;;;;;5286364;28;20424;-79
2022/11/08 10:42:35;;;;;;;4.47;1.30;;;;;;;;;;5267588;28;20025;-79
2022/11/08 10:45:07;;;;;;;2.05;1.20;;;;;;;;;;5286454;28;20469;-80
2022/11/08 10:47:38;;;;;;;4.32;1.35;;;;;;;;;;5286157;28;20073;-80
2022/11/08 10:50:24;;;;;;;2.95;1.45;;;;;;;;;;5285855;28;20381;-79
2022/11/08 10:53:02;;;;;;;3.90;1.33;;;;;;;;;;5268010;28;20060;-80
2022/11/08 10:55:37;;;;;;;3.75;1.60;;;;;;;;;;5285740;28;20028;-80
2022/11/08 10:58:26;;;;;;;3.58;1.50;;;;;;;;;;5286068;28;20044;-79
2022/11/08 11:01:00;;;;;;;2.60;1.48;;;;;;;;;;5285176;28;20036;-79
2022/11/08 11:03:31;;;;;;;4.93;1.67;;;;;;;;;;5267924;28;20470;-79
2022/11/08 11:06:03;;;;;;;4.50;1.67;;;;;;;;;;5285889;28;20043;-79
2022/11/08 11:08:46;;;;;;;2.65;1.30;;;;;;;;;;5285892;28;20017;-80
2022/11/08 11:11:21;;;;;;;3.88;1.42;;;;;;;;;;5285511;28;20040;-79
2022/11/08 11:14:08;;;;;;;4.07;1.48;;;;;;;;;;5285567;28;20021;-79
2022/11/08 11:16:39;;;;;;;;;;;;;;;;;;5286523;28;20044;-79
2022/11/08 11:19:13;;;;;;;3.42;1.40;;;;;;;;;;5285934;28;20443;-79
2022/11/08 11:21:45;;;;;;;5.55;1.75;;;;;;;;;;5284393;28;20059;-80
2022/11/08 11:24:17;;;;;;;2.78;1.42;;;;;;;;;;5286022;28;20024;-79
2022/11/08 11:26:59;;;;;;;2.90;1.30;;;;;;;;;;5285966;28;20033;-79
2022/11/08 11:29:35;;;;;;;5.95;1.50;;;;;;;;;;5267235;28;20021;-79
2022/11/08 11:32:25;;;;;;;2.80;1.40;;;;;;;;;;5285496;28;20025;-79
2022/11/08 11:34:58;;;;;;;2.88;1.65;;;;;;;;;;5284940;28;20147;-79
2022/11/08 11:37:33;;;;;;;2.45;1.40;;;;;;;;;;5253925;28;20029;-79
2022/11/08 11:40:11;;;;;;;2.67;1.55;;;;;;;;;;5264516;28;20032;-79
2022/11/08 11:42:49;;;;;;;2.58;1.30;;;;;;;;;;5264211;28;20030;-79
2022/11/08 11:45:23;;;;;;;4.63;1.35;;;;;;;;;;5264275;28;20484;-79
2022/11/08 11:47:55;;;;;;;4.28;1.60;;;;;;;;;;5264185;28;20045;-79
2022/11/08 11:50:38;;;;;;;3.25;1.42;;;;;;;;;;5271450;28;20063;-78
2022/11/08 11:53:15;;;;;;;2.55;1.30;;;;;;;;;;5285611;28;20021;-78
2022/11/08 11:55:46;;;;;;;2.47;1.23;;;;;;;;;;5285076;28;20489;-78
2022/11/08 11:58:36;;;;;;;3.97;1.33;;;;;;;;;;5267437;28;20028;-78
2022/11/08 12:01:20;;;;;;;3.80;1.65;;;;;;;;;;5266192;28;20037;-78
2022/11/08 12:04:01;;;;;;;3.17;1.40;;;;;;;;;;5284770;28;20017;-78
2022/11/08 12:06:41;;;;;;;2.88;1.67;;;;;;;;;;5265630;28;20461;-79
2022/11/08 12:09:28;;;;;;;5.10;1.50;;;;;;;;;;5284627;28;20024;-79
2022/11/08 12:12:09;;;;;;;3.53;1.60;;;;;;;;;;5264441;28;20109;-79
2022/11/08 12:15:02;;;;;;;2.97;1.40;;;;;;;;;;5263692;28;20117;-79
2022/11/08 12:17:34;;;;;;;4.03;1.30;;;;;;;;;;5261672;28;20022;-79
2022/11/08 12:20:17;;;;;;;4.85;1.75;;;;;;;;;;5268177;28;20043;-79
2022/11/08 12:23:07;;;;;;;7.32;1.48;;;;;;;;;;5283755;28;20108;-79
2022/11/08 12:25:41;;;;;;;2.30;1.30;;;;;;;;;;5283918;28;20025;-79
2022/11/08 12:28:41;;;;;;;2.42;1.30;;;;;;;;;;5284194;28;20067;-78
2022/11/08 12:31:27;;;;;;;2.42;1.42;;;;;;;;;;5266102;28;20044;-78
2022/11/08 12:34:10;;;;;;;5.30;1.40;;;;;;;;;;5284642;28;20009;-79
2022/11/08 12:37:00;;;;;;;3.10;1.42;;;;;;;;;;5283869;28;20048;-78
2022/11/08 12:39:45;;;;;;;3.55;1.25;;;;;;;;;;5284021;28;20029;-79
2022/11/08 12:42:38;;;;;;;5.80;1.40;;;;;;;;;;5284238;28;20025;-78
2022/11/08 12:45:21;;;;;;;2.10;1.42;;;;;;;;;;5284644;28;20032;-79
2022/11/08 12:47:53;;;;;;;6.22;1.70;;;;;;;;;;5272859;28;20091;-79
2022/11/08 12:50:28;;;;;;;5.83;1.57;;;;;;;;;;5268971;28;20028;-80
2022/11/08 12:53:19;;;;;;;3.72;1.50;;;;;;;;;;5284360;28;20348;-80
2022/11/08 12:55:51;;;;;;;3.55;1.30;;;;;;;;;;5265742;28;20064;-80
2022/11/08 12:58:32;;;;;;;3.85;1.40;;;;;;;;;;5284361;28;20029;-80
2022/11/08 13:01:08;;;;;;;5.43;1.42;;;;;;;;;;5283486;28;20067;-80
2022/11/08 13:03:44;;;;;;;3.38;1.40;;;;;;;;;;5265516;28;20029;-79
2022/11/08 13:06:21;;;;;;;3.72;1.48;;;;;;;;;;5283834;28;20025;-79
2022/11/08 13:09:02;;;;;;;5.85;1.60;;;;;;;;;;5264057;28;20029;-79
2022/11/08 13:11:40;;;;;;;3.08;1.17;;;;;;;;;;5264918;28;20021;-79
2022/11/08 13:14:13;;;;;;;3.55;1.48;;;;;;;;;;5283743;28;20032;-79
2022/11/08 13:17:04;;;;;;;2.47;1.30;;;;;;;;;;5283821;28;20013;-78
2022/11/08 13:19:47;;;;;;;7.25;1.30;;;;;;;;;;5282910;28;20036;-79
2022/11/08 13:22:27;;;;;;;4.95;1.50;;;;;;;;;;5283169;28;20104;-79
2022/11/08 13:24:59;;;;;;;5.85;1.60;;;;;;;;;;5282553;28;20048;-79
2022/11/08 13:27:41;;;;;;;4.50;1.50;;;;;;;;;;5283326;28;20029;-79
2022/11/08 13:30:15;;;;;;;6.28;1.60;;;;;;;;;;5283744;28;20647;-79
2022/11/08 13:32:59;;;;;;;7.63;1.85;;;;;;;;;;5283018;28;20040;-79
2022/11/08 13:35:30;;;;;;;3.85;1.38;;;;;;;;;;5264904;28;20036;-79
2022/11/08 13:38:22;;;;;;;5.43;1.97;;;;;;;;;;5266979;28;20544;-80
2022/11/08 13:40:59;;;;;;;3.22;1.33;;;;;;;;;;5262029;28;20440;-79
2022/11/08 13:43:31;;;;;;;3.42;1.65;;;;;;;;;;5260516;28;20064;-79
2022/11/08 13:49:02;;;;;;;3.75;1.52;;;;;;;;;;5282551;28;20040;-79
2022/11/08 13:51:37;;;;;;;5.15;1.60;;;;;;;;;;5282241;28;20028;-79
2022/11/08 13:54:20;;;;;;;4.97;1.73;;;;;;;;;;5283305;28;20032;-79
2022/11/08 13:56:55;;;;;;;2.63;1.38;;;;;;;;;;5282857;28;20028;-79
2022/11/08 13:59:29;;;;;;;4.65;1.33;;;;;;;;;;5282873;28;20025;-80
2022/11/08 14:02:02;;;;;;;4.82;1.40;;;;;;;;;;5272178;28;20024;-79
2022/11/08 14:04:36;;;;;;;4.40;1.50;;;;;;;;;;5283216;28;20465;-80
2022/11/08 14:07:14;;;;;;;4.13;1.67;;;;;;;;;;5283135;28;20074;-80
2022/11/08 14:09:58;;;;;;;5.10;1.98;;;;;;;;;;5281198;28;20100;-80
2022/11/08 14:12:46;;;;;;;4.95;1.40;;;;;;;;;;5261068;28;20112;-80
2022/11/08 14:15:24;;;;;;;3.72;1.40;;;;;;;;;;5261830;28;20159;-80
2022/11/08 14:18:02;;;;;;;9.13;1.95;;;;;;;;;;5264543;28;20076;-80
2022/11/08 14:20:40;;;;;;;5.00;2.25;;;;;;;;;;5282175;28;20032;-79
2022/11/08 14:23:17;;;;;;;6.13;1.42;;;;;;;;;;5282701;28;20104;-80
2022/11/08 14:25:56;;;;;;;3.72;1.83;;;;;;;;;;5283174;28;20043;-80
2022/11/08 14:28:35;;;;;;;4.00;1.58;;;;;;;;;;5282605;28;20111;-80
2022/11/08 14:31:21;;;;;;;4.60;1.60;;;;;;;;;;5263512;28;20029;-79
2022/11/08 14:33:53;;;;;;;5.03;1.92;;;;;;;;;;5281759;28;20537;-80
2022/11/08 14:36:26;;;;;;;5.53;1.77;;;;;;;;;;5264696;28;20064;-80
2022/11/08 14:39:14;;;;;;;4.07;1.42;;;;;;;;;;5282960;28;20051;-80
2022/11/08 14:41:46;;;;;;;8.48;1.92;;;;;;;;;;5282650;28;20045;-78
2022/11/08 14:44:17;;;;;;;3.45;1.67;;;;;;;;;;5283089;28;20024;-77
2022/11/08 14:46:50;;;;;;;4.15;1.80;;;;;;;;;;5280626;28;20049;-78
2022/11/08 14:49:28;;;;;;;4.45;1.30;;;;;;;;;;5261864;28;20021;-78
2022/11/08 14:52:03;;;;;;;6.03;1.63;;;;;;;;;;5260000;28;20032;-79
2022/11/08 14:54:39;;;;;;;3.50;1.50;;;;;;;;;;5260226;28;20570;-79
2022/11/08 14:57:32;;;;;;;6.68;1.60;;;;;;;;;;5261713;28;20040;-79
2022/11/08 15:00:06;;;;;;;4.10;1.40;;;;;;;;;;5265277;28;20033;-79
2022/11/08 15:02:38;;;;;;;5.70;1.70;;;;;;;;;;5263305;28;20060;-79
2022/11/08 15:05:29;;;;;;;3.50;1.48;;;;;;;;;;5282468;28;20083;-78
2022/11/08 15:08:01;;;;;;;4.47;1.67;;;;;;;;;;5282212;28;20036;-79
2022/11/08 15:10:33;;;;;;;5.78;1.58;;;;;;;;;;5282337;28;20024;-79
2022/11/08 15:13:08;;;;;;;3.75;1.50;;;;;;;;;;5282628;28;20029;-79
2022/11/08 15:15:39;;;;;;;4.50;1.63;;;;;;;;;;5281748;28;20045;-79
2022/11/08 15:18:12;;;;;;;4.47;1.50;;;;;;;;;;5281928;28;20043;-79
2022/11/08 15:20:58;;;;;;;4.53;1.95;;;;;;;;;;5282177;28;20492;-78
2022/11/08 15:23:43;;;;;;;4.68;1.70;;;;;;;;;;5283662;28;20079;-78
2022/11/08 15:26:32;;;;;;;3.53;1.50;;;;;;;;;;5285527;28;20489;-79
2022/11/08 15:29:12;;;;;;;2.20;1.50;;;;;;;;;;5285317;28;20484;-79
2022/11/08 15:31:51;;;;;;;3.67;1.55;;;;;;;;;;5284226;28;20033;-78
2022/11/08 15:34:26;;;;;;;5.15;1.45;;;;;;;;;;5285199;28;20404;-79
2022/11/08 15:36:57;;;;;;;6.63;1.85;;;;;;;;;;5285393;28;20425;-79
2022/11/08 15:39:35;;;;;;;3.27;1.37;;;;;;;;;;5285218;28;20025;-79
2022/11/08 15:42:11;;;;;;;5.50;1.40;;;;;;;;;;5285188;28;20272;-79
2022/11/08 15:45:01;;;;;;;4.53;1.58;;;;;;;;;;5266588;28;20021;-80